Terminal Aerodrome Forecast
Issued by NWS Jackson, MS

Home | Current Version | Previous Version | Text Only | Print | Product List | Glossary On
Versions: 1 2 3 4 5 6 7 8 9 10 11 12 13 14 15
133
FTUS44 KMEG 271732
TAFTUP
TAF
KTUP 271732Z 2718/2818 12007KT P6SM VCTS SCT040CB BKN100
     FM280100 08003KT P6SM SKC
      TEMPO 2808/2812 3SM BR
     FM281400 12006KT P6SM SCT060=

USA.gov is the U.S. government's official web portal to all federal, state and local government web resources and services.